Saint Charles, Idaho
Current Conditions -  °F | °C
As of 3:51 PM on Friday 31 Oct 2014 (Local Time) from KLGU Reporting Station
Clear Clear  
Wind Chill: 72°   Ceiling: Unl
Heat Index: 72°   Visibility: 10mi
Dew Point: 25°   Wind: 15mph
Humidity: 17%   Direction: 220°SW
Pressure: 29.87"   Gusts: NA
Location:  42.11°N, 111.39°W
Report Text: KLGU 312151Z AUTO 22013KT 10SM CLR 22/M04 A2987 RMK AO2 SLP085 T02221039 TSNO
Loading
Personal Weather Stations






























Interactive Weather Map
Tropical Storm Tracking
New forecast layout! Learn more

10-Day Weather Forecast

Advertisements
Track Severe Weather on mobile